Time;durP1;ratioP1;P1;durP2;ratioP2;P2;SDS_P1;SDS_P2;PMS_P1;PMS_P2;Temp;Humidity;BMP_temperature;BMP_pressure;BME280_temperature;BME280_humidity;BME280_pressure;Samples;Min_cycle;Max_cycle;Signal;HPM_P1;HPM_P2
2022/03/08 00:00:28;;;;;;;7.23;6.80;;;;;;;2.57;55.71;101924.03;5116249;28;20234;-68
2022/03/08 00:02:57;;;;;;;6.60;6.33;;;;;;;2.56;55.49;101924.84;5115900;28;20691;-68
2022/03/08 00:05:25;;;;;;;6.33;6.00;;;;;;;2.51;56.11;101928.25;5097501;28;20254;-68
2022/03/08 00:07:53;;;;;;;7.70;7.10;;;;;;;2.45;56.19;101935.09;5116072;28;20190;-68
2022/03/08 00:10:20;;;;;;;6.20;5.90;;;;;;;2.39;56.08;101937.59;5115718;28;20661;-68
2022/03/08 00:12:48;;;;;;;6.87;6.33;;;;;;;2.29;56.69;101933.19;5115710;28;20268;-68
2022/03/08 00:15:20;;;;;;;7.50;7.10;;;;;;;2.47;56.36;101938.53;5115919;28;20527;-68
2022/03/08 00:17:47;;;;;;;6.80;6.40;;;;;;;2.33;56.52;101936.66;5116241;28;20181;-68
2022/03/08 00:20:15;;;;;;;5.93;5.73;;;;;;;2.37;56.62;101936.72;5115532;28;20238;-68
2022/03/08 00:22:42;;;;;;;7.17;6.87;;;;;;;2.35;56.65;101930.63;5115496;28;20744;-69
2022/03/08 00:25:11;;;;;;;5.93;5.73;;;;;;;2.27;56.83;101934.84;5115394;28;20250;-69
2022/03/08 00:27:38;;;;;;;6.43;6.13;;;;;;;2.26;57.05;101927.94;5115710;28;20678;-69
2022/03/08 00:30:06;;;;;;;6.37;6.00;;;;;;;2.16;57.28;101928.69;5115390;28;20205;-69
2022/03/08 00:32:33;;;;;;;6.00;5.80;;;;;;;2.24;57.17;101923.63;5097039;28;20213;-68
2022/03/08 00:35:00;;;;;;;7.27;6.77;;;;;;;2.05;57.67;101925.97;5115590;28;20543;-68
2022/03/08 00:37:26;;;;;;;7.07;6.77;;;;;;;2.09;57.90;101924.31;5115503;28;20661;-68
2022/03/08 00:39:53;;;;;;;6.93;6.53;;;;;;;1.89;58.75;101930.06;5115147;28;20189;-68
2022/03/08 00:42:20;;;;;;;7.07;6.77;;;;;;;1.83;58.76;101924.81;5115229;28;20212;-69
2022/03/08 00:44:46;;;;;;;7.93;7.47;;;;;;;1.92;58.75;101922.34;5096825;28;20214;-69
2022/03/08 00:47:13;;;;;;;8.50;7.90;;;;;;;1.78;59.33;101918.69;5115296;28;20193;-69
2022/03/08 00:49:40;;;;;;;7.00;6.70;;;;;;;1.76;59.33;101917.81;5115608;28;20190;-69
2022/03/08 00:52:10;;;;;;;8.57;8.17;;;;;;;1.84;59.23;101908.47;5114929;28;20205;-68
2022/03/08 00:54:37;;;;;;;8.53;8.00;;;;;;;1.69;59.70;101905.66;5114384;28;20185;-69
2022/03/08 00:57:04;;;;;;;7.43;7.13;;;;;;;1.67;59.68;101904.78;5114907;28;20189;-69
2022/03/08 00:59:32;;;;;;;8.70;7.87;;;;;;;1.55;60.19;101902.03;5096526;28;20181;-69
2022/03/08 01:01:59;;;;;;;8.67;7.93;;;;;;;1.60;60.37;101906.41;5114666;28;20216;-68
2022/03/08 01:04:26;;;;;;;10.37;7.63;;;;;;;1.63;60.19;101908.16;5114620;28;20181;-68
2022/03/08 01:06:53;;;;;;;7.83;7.50;;;;;;;1.63;60.09;101900.41;5114920;28;20289;-68
2022/03/08 01:09:19;;;;;;;8.40;7.60;;;;;;;1.48;60.71;101900.19;5114876;28;20238;-68
2022/03/08 01:11:45;;;;;;;7.37;7.00;;;;;;;1.56;60.47;101901.16;5114494;28;20687;-68
2022/03/08 01:14:12;;;;;;;8.33;7.77;;;;;;;1.40;60.86;101894.06;5114823;28;20189;-69
2022/03/08 01:16:39;;;;;;;8.23;7.73;;;;;;;1.31;61.26;101895.66;5114724;28;20196;-69
2022/03/08 01:19:05;;;;;;;8.87;8.20;;;;;;;1.21;61.89;101898.91;5096150;28;20204;-69
2022/03/08 01:21:36;;;;;;;8.70;8.10;;;;;;;1.21;61.87;101892.88;5096622;28;20224;-68
2022/03/08 01:24:03;;;;;;;8.87;8.37;;;;;;;1.18;61.83;101898.88;5114651;28;20167;-69
2022/03/08 01:26:30;;;;;;;8.20;7.10;;;;;;;1.06;62.33;101896.97;5114532;28;20193;-68
2022/03/08 01:28:56;;;;;;;7.47;6.90;;;;;;;0.98;62.67;101895.97;5114605;28;20226;-68
2022/03/08 01:31:24;;;;;;;8.93;8.23;;;;;;;1.01;62.61;101892.59;5114713;28;20213;-69
2022/03/08 01:33:51;;;;;;;7.77;7.40;;;;;;;1.04;62.46;101898.66;5114483;28;20565;-68
2022/03/08 01:36:17;;;;;;;8.70;8.10;;;;;;;0.89;62.92;101892.38;5114451;28;20519;-69
2022/03/08 01:38:44;;;;;;;9.30;8.50;;;;;;;0.96;62.97;101894.22;5114352;28;20434;-69
2022/03/08 01:41:10;;;;;;;8.50;8.00;;;;;;;0.83;63.38;101893.13;5114322;28;20213;-68
2022/03/08 01:43:37;;;;;;;8.70;7.30;;;;;;;0.76;63.47;101884.41;5114065;28;20716;-68
2022/03/08 01:46:03;;;;;;;7.90;7.53;;;;;;;0.79;63.24;101870.72;5113933;28;20453;-68
2022/03/08 01:48:31;;;;;;;8.80;7.17;;;;;;;0.73;63.53;101871.50;5113945;28;20516;-69
2022/03/08 01:50:58;;;;;;;8.60;8.03;;;;;;;0.67;63.55;101868.78;5095910;28;20204;-69
2022/03/08 01:53:24;;;;;;;8.10;7.67;;;;;;;0.63;64.18;101860.97;5113885;28;20479;-69
2022/03/08 01:55:51;;;;;;;8.40;7.90;;;;;;;0.71;63.86;101861.97;5113855;28;20455;-69
2022/03/08 01:58:23;;;;;;;8.27;7.70;;;;;;;0.64;64.16;101870.44;5113815;28;20178;-68
2022/03/08 02:00:49;;;;;;;8.17;7.53;;;;;;;0.56;64.78;101875.44;5113746;28;20200;-68
2022/03/08 02:03:16;;;;;;;8.57;7.80;;;;;;;0.47;65.16;101864.97;5114274;28;20804;-68
2022/03/08 02:05:43;;;;;;;8.50;8.00;;;;;;;0.33;65.57;101861.28;5113431;28;20560;-68
2022/03/08 02:08:09;;;;;;;8.13;7.50;;;;;;;0.26;66.02;101862.88;5113233;28;20437;-68
2022/03/08 02:10:36;;;;;;;9.07;8.33;;;;;;;0.31;65.89;101862.97;5113573;28;20436;-68
2022/03/08 02:13:02;;;;;;;8.67;8.13;;;;;;;0.37;65.70;101860.50;5113643;28;20430;-68
2022/03/08 02:15:29;;;;;;;7.93;7.37;;;;;;;0.35;65.83;101859.59;5113678;28;20589;-68
2022/03/08 02:17:59;;;;;;;14.70;8.17;;;;;;;0.32;66.34;101859.56;5113658;28;20425;-68
2022/03/08 02:20:27;;;;;;;8.63;7.97;;;;;;;0.26;66.49;101863.75;5113677;28;20441;-69
2022/03/08 02:22:54;;;;;;;9.33;8.60;;;;;;;0.18;66.73;101857.56;5113542;28;20453;-68
2022/03/08 02:25:22;;;;;;;8.67;7.80;;;;;;;0.15;66.75;101846.38;5113448;28;20453;-68
2022/03/08 02:27:53;;;;;;;8.73;8.07;;;;;;;0.16;66.86;101845.53;5113833;28;20429;-68
2022/03/08 02:30:22;;;;;;;8.47;7.87;;;;;;;0.12;66.82;101847.16;5113524;28;20436;-68
2022/03/08 02:32:49;;;;;;;9.77;8.97;;;;;;;-0.03;67.07;101847.72;5113463;28;20456;-68
2022/03/08 02:35:19;;;;;;;8.53;7.87;;;;;;;-0.15;67.87;101841.44;5113467;28;20425;-68
2022/03/08 02:37:52;;;;;;;7.87;7.47;;;;;;;-0.30;68.44;101842.84;5095276;28;20414;-68
2022/03/08 02:40:28;;;;;;;12.83;8.83;;;;;;;-0.39;69.16;101847.81;5113701;28;20439;-68
2022/03/08 02:42:55;;;;;;;11.70;8.47;;;;;;;-0.47;69.41;101854.50;5113611;28;20478;-69
2022/03/08 02:45:22;;;;;;;8.87;8.00;;;;;;;-0.44;69.99;101858.84;5113328;28;20449;-69
2022/03/08 02:47:48;;;;;;;8.80;8.17;;;;;;;-0.38;69.85;101849.56;5113406;28;20934;-69
2022/03/08 02:50:16;;;;;;;9.43;8.27;;;;;;;-0.33;69.40;101855.66;5113636;28;20807;-69
2022/03/08 02:52:44;;;;;;;9.43;8.57;;;;;;;-0.24;69.05;101848.97;5113221;28;20445;-68
2022/03/08 02:55:12;;;;;;;8.53;8.03;;;;;;;-0.36;69.91;101852.16;5113303;28;20429;-68
2022/03/08 02:57:40;;;;;;;8.80;8.30;;;;;;;-0.42;70.22;101858.06;5113598;28;20410;-68
2022/03/08 03:00:09;;;;;;;9.43;8.57;;;;;;;-0.48;70.88;101860.50;5113546;28;20429;-68
2022/03/08 03:02:35;;;;;;;12.53;8.50;;;;;;;-0.56;71.18;101855.16;5113160;28;20498;-69
2022/03/08 03:05:03;;;;;;;8.87;8.00;;;;;;;-0.53;70.67;101851.78;5113152;28;20425;-69
2022/03/08 03:07:29;;;;;;;9.20;8.40;;;;;;;-0.53;70.95;101854.38;5113167;28;20429;-69
2022/03/08 03:09:56;;;;;;;10.30;9.23;;;;;;;-0.51;70.81;101850.09;5113404;28;20480;-69
2022/03/08 03:12:22;;;;;;;9.07;8.33;;;;;;;-0.50;70.79;101846.72;5113089;28;20498;-69
2022/03/08 03:14:49;;;;;;;9.27;8.37;;;;;;;-0.47;70.41;101844.22;5113081;28;20430;-69
2022/03/08 03:17:19;;;;;;;8.70;7.90;;;;;;;-0.41;70.38;101836.63;5113118;28;20460;-69
2022/03/08 03:19:45;;;;;;;12.53;9.27;;;;;;;-0.41;70.61;101834.06;5117005;28;20429;-69
2022/03/08 03:22:12;;;;;;;13.07;10.60;;;;;;;-0.53;70.59;101835.50;5116814;28;20498;-68
2022/03/08 03:24:38;;;;;;;16.93;12.50;;;;;;;-0.57;71.15;101829.44;5116657;28;20426;-68
2022/03/08 03:27:05;;;;;;;11.77;9.97;;;;;;;-0.55;71.07;101827.75;5116544;28;20962;-69
2022/03/08 03:29:31;;;;;;;13.53;8.80;;;;;;;-0.54;70.55;101826.91;5117103;28;20429;-69
2022/03/08 03:31:57;;;;;;;11.37;10.20;;;;;;;-0.63;71.11;101826.72;5117039;28;20453;-68
2022/03/08 03:34:24;;;;;;;16.87;11.87;;;;;;;-0.70;71.27;101822.28;5116785;28;20475;-68
2022/03/08 03:36:51;;;;;;;10.07;9.07;;;;;;;-0.83;71.90;101828.81;5116436;28;20421;-68
2022/03/08 03:39:17;;;;;;;9.63;8.10;;;;;;;-0.79;71.57;101820.34;5116677;28;20833;-68
2022/03/08 03:41:44;;;;;;;14.93;9.97;;;;;;;-0.75;71.56;101813.56;5116237;28;20468;-68
2022/03/08 03:44:10;;;;;;;10.57;9.67;;;;;;;-0.88;72.08;101815.00;5116319;28;20432;-68
2022/03/08 03:46:37;;;;;;;10.43;9.40;;;;;;;-0.89;72.60;101815.81;5116449;28;20538;-68
2022/03/08 03:49:04;;;;;;;10.23;9.27;;;;;;;-0.95;72.95;101819.13;5116199;28;20509;-68
2022/03/08 03:51:30;;;;;;;9.73;8.97;;;;;;;-0.99;73.24;101806.19;5116068;28;20499;-68
2022/03/08 03:53:56;;;;;;;11.23;10.23;;;;;;;-1.02;73.53;101812.09;5116411;28;20976;-68
2022/03/08 03:56:23;;;;;;;9.73;8.93;;;;;;;-1.00;73.41;101799.28;5097781;28;20478;-68
2022/03/08 03:58:49;;;;;;;11.03;9.87;;;;;;;-1.03;73.32;101810.34;5116542;28;20434;-68
2022/03/08 04:01:16;;;;;;;10.57;9.50;;;;;;;-1.02;73.14;101812.09;5116460;28;20447;-68
2022/03/08 04:03:43;;;;;;;8.57;7.97;;;;;;;-0.97;73.60;101804.50;5116489;28;20451;-68
2022/03/08 04:06:09;;;;;;;12.53;10.13;;;;;;;-0.98;73.54;101808.78;5115794;28;20461;-68
2022/03/08 04:08:36;;;;;;;10.27;9.30;;;;;;;-0.96;73.38;101811.38;5115865;28;20433;-68
2022/03/08 04:11:08;;;;;;;9.27;8.37;;;;;;;-0.92;73.21;101808.94;5116007;28;20449;-68
2022/03/08 04:13:34;;;;;;;10.17;9.33;;;;;;;-0.80;72.80;101812.59;5115699;28;20426;-68
2022/03/08 04:16:01;;;;;;;10.27;9.47;;;;;;;-0.95;73.17;101816.53;5115926;28;20426;-69
2022/03/08 04:18:29;;;;;;;18.03;12.93;;;;;;;-0.94;72.93;101802.00;5115622;28;20465;-69
2022/03/08 04:20:55;;;;;;;10.43;9.37;;;;;;;-0.93;73.13;101803.72;5115392;28;20461;-68
2022/03/08 04:23:21;;;;;;;10.80;9.70;;;;;;;-0.97;73.15;101805.38;5115912;28;20429;-69
2022/03/08 04:25:48;;;;;;;9.13;8.43;;;;;;;-0.94;73.32;101805.44;5115460;28;20856;-69
2022/03/08 04:28:14;;;;;;;11.53;9.20;;;;;;;-0.95;73.42;101805.41;5115560;28;20911;-69
2022/03/08 04:30:41;;;;;;;11.97;10.30;;;;;;;-0.97;73.50;101807.94;5114881;28;20968;-69
2022/03/08 04:33:08;;;;;;;11.57;9.73;;;;;;;-0.96;73.44;101811.38;5115655;28;20984;-69
2022/03/08 04:35:34;;;;;;;11.87;10.03;;;;;;;-1.05;73.72;101812.03;5115347;28;20482;-68
2022/03/08 04:38:01;;;;;;;15.57;9.93;;;;;;;-0.95;73.65;101802.81;5115250;28;20765;-68
2022/03/08 04:40:28;;;;;;;14.17;10.13;;;;;;;-1.02;73.45;101804.38;5115238;28;20433;-68
2022/03/08 04:42:55;;;;;;;10.60;9.57;;;;;;;-1.05;74.15;101795.75;5115098;28;20865;-68
2022/03/08 04:45:21;;;;;;;10.53;9.60;;;;;;;-0.96;73.54;101794.25;5115057;28;20436;-68
2022/03/08 04:47:48;;;;;;;10.23;9.20;;;;;;;-1.04;73.92;101803.50;5115237;28;20908;-68
2022/03/08 04:50:16;;;;;;;13.87;10.17;;;;;;;-1.14;74.27;101806.69;5114976;28;20441;-68
2022/03/08 04:52:45;;;;;;;9.60;8.70;;;;;;;-1.13;74.55;101804.16;5114881;28;20503;-68
2022/03/08 04:55:13;;;;;;;9.77;9.07;;;;;;;-0.98;74.33;101805.34;5097482;28;20437;-68
2022/03/08 04:57:40;;;;;;;10.60;9.60;;;;;;;-1.00;74.08;101815.59;5115096;28;20433;-68
2022/03/08 05:00:11;;;;;;;10.33;9.47;;;;;;;-1.07;74.27;101812.81;5114810;28;20421;-68
2022/03/08 05:02:39;;;;;;;10.63;9.70;;;;;;;-0.99;74.41;101812.19;5115806;28;20541;-69
2022/03/08 05:05:08;;;;;;;10.70;9.60;;;;;;;-1.05;74.46;101806.91;5114679;28;20439;-69
2022/03/08 05:07:35;;;;;;;10.43;9.50;;;;;;;-1.07;74.97;101807.66;5114588;28;20967;-69
2022/03/08 05:10:07;;;;;;;12.40;9.50;;;;;;;-1.07;74.77;101802.53;5114868;28;20980;-69
2022/03/08 05:12:35;;;;;;;11.00;9.90;;;;;;;-1.03;74.51;101804.34;5114516;28;20449;-69
2022/03/08 05:15:03;;;;;;;9.70;8.90;;;;;;;-1.00;74.28;101801.84;5114781;28;20483;-69
2022/03/08 05:17:30;;;;;;;10.80;9.40;;;;;;;-1.09;74.73;101793.94;5114429;28;20414;-69
2022/03/08 05:19:56;;;;;;;11.53;10.27;;;;;;;-1.00;74.61;101801.84;5114471;28;20501;-69
2022/03/08 05:22:23;;;;;;;17.17;9.23;;;;;;;-1.02;74.57;101795.81;5114582;28;20442;-69
2022/03/08 05:24:49;;;;;;;11.50;9.80;;;;;;;-1.07;74.72;101793.16;5114568;28;20434;-69
2022/03/08 05:27:16;;;;;;;14.30;10.30;;;;;;;-1.09;74.71;101789.66;5114203;28;20487;-69
2022/03/08 05:29:42;;;;;;;10.50;9.50;;;;;;;-1.17;75.08;101796.31;5114756;28;20425;-69
2022/03/08 05:32:09;;;;;;;10.47;9.17;;;;;;;-1.15;74.99;101794.63;5114250;28;20450;-68
2022/03/08 05:34:36;;;;;;;11.93;9.83;;;;;;;-1.21;75.12;101791.97;5114128;28;20498;-68
2022/03/08 05:37:02;;;;;;;14.43;9.93;;;;;;;-1.27;75.77;101799.50;5114145;28;20421;-68
2022/03/08 05:39:29;;;;;;;15.77;9.07;;;;;;;-1.25;75.92;101808.97;5114381;28;20433;-68
2022/03/08 05:41:55;;;;;;;10.77;9.77;;;;;;;-1.31;76.38;101807.97;5114055;28;20441;-68
2022/03/08 05:44:22;;;;;;;10.00;8.97;;;;;;;-1.23;76.27;101804.75;5114272;28;20475;-68
2022/03/08 05:46:49;;;;;;;10.00;9.10;;;;;;;-1.30;76.07;101799.41;5114160;28;20492;-68
2022/03/08 05:49:18;;;;;;;10.37;9.47;;;;;;;-1.25;76.25;101802.97;5114205;28;20430;-68
2022/03/08 05:51:44;;;;;;;9.87;9.03;;;;;;;-1.39;76.13;101800.06;5113828;28;20446;-68
2022/03/08 05:54:11;;;;;;;10.73;9.67;;;;;;;-1.44;76.50;101797.38;5113793;28;20919;-68
2022/03/08 05:56:37;;;;;;;9.43;8.57;;;;;;;-1.42;76.81;101800.88;5113811;28;20491;-68
2022/03/08 05:59:04;;;;;;;10.73;9.37;;;;;;;-1.41;76.97;101797.47;5113760;28;20429;-68
2022/03/08 06:01:30;;;;;;;16.27;9.63;;;;;;;-1.29;76.89;101809.72;5113888;28;20869;-68
2022/03/08 06:03:57;;;;;;;12.40;10.33;;;;;;;-1.28;76.69;101808.06;5113923;28;20453;-69
2022/03/08 06:06:23;;;;;;;13.77;10.10;;;;;;;-1.35;76.79;101806.16;5113949;28;20461;-69
2022/03/08 06:08:50;;;;;;;11.20;10.17;;;;;;;-1.48;77.64;101805.84;5095521;28;20849;-69
2022/03/08 06:11:17;;;;;;;13.50;10.60;;;;;;;-1.47;77.50;101814.41;5113907;28;20495;-69
2022/03/08 06:13:43;;;;;;;10.63;9.60;;;;;;;-1.48;77.89;101817.81;5113903;28;20829;-69
2022/03/08 06:16:10;;;;;;;10.80;9.77;;;;;;;-1.44;77.71;101822.19;5114152;28;20414;-69
2022/03/08 06:18:37;;;;;;;11.63;9.80;;;;;;;-1.39;77.34;101816.34;5113523;28;20799;-69
2022/03/08 06:21:03;;;;;;;12.87;9.73;;;;;;;-1.48;77.75;101820.38;5113436;28;20494;-69
2022/03/08 06:23:30;;;;;;;11.57;9.40;;;;;;;-1.47;77.88;101817.84;5113836;28;20422;-69
2022/03/08 06:25:57;;;;;;;18.47;9.97;;;;;;;-1.47;77.94;101817.84;5113459;28;20926;-69
2022/03/08 06:28:24;;;;;;;10.37;9.60;;;;;;;-1.44;78.24;101823.06;5113478;28;20475;-69
2022/03/08 06:30:57;;;;;;;13.33;10.47;;;;;;;-1.28;77.81;101826.03;5113987;28;20557;-69
2022/03/08 06:33:23;;;;;;;16.00;9.57;;;;;;;-1.33;77.99;101825.03;5113496;28;20443;-69
2022/03/08 06:35:50;;;;;;;15.73;9.73;;;;;;;-1.16;77.57;101831.44;5113649;28;20927;-69
2022/03/08 06:38:16;;;;;;;14.80;10.93;;;;;;;-1.16;77.50;101832.31;5113626;28;20429;-69
2022/03/08 06:40:43;;;;;;;11.20;10.07;;;;;;;-1.02;77.07;101839.50;5113339;28;20425;-69
2022/03/08 06:43:09;;;;;;;12.03;10.63;;;;;;;-1.00;76.83;101835.25;5095534;28;20833;-69
2022/03/08 06:45:36;;;;;;;13.90;10.13;;;;;;;-1.06;77.26;101827.44;5113825;28;20435;-70
2022/03/08 06:48:03;;;;;;;15.17;10.67;;;;;;;-1.07;77.77;101826.56;5113206;28;20458;-70
2022/03/08 06:50:30;;;;;;;16.10;9.87;;;;;;;-0.94;77.31;101836.28;5113767;28;20459;-69
2022/03/08 06:52:56;;;;;;;34.77;10.60;;;;;;;-0.76;76.72;101834.97;5114023;28;20449;-69
2022/03/08 06:55:23;;;;;;;17.83;10.80;;;;;;;-0.58;75.82;101835.38;5117758;28;20471;-69
2022/03/08 06:57:49;;;;;;;12.03;10.73;;;;;;;-0.48;75.34;101839.91;5117090;28;20428;-70
2022/03/08 07:00:16;;;;;;;23.53;9.60;;;;;;;-0.44;75.51;101839.13;5117143;28;20479;-70
2022/03/08 07:02:42;;;;;;;11.47;10.27;;;;;;;-0.03;73.87;101839.13;5117620;28;20486;-70
2022/03/08 07:05:10;;;;;;;12.73;9.97;;;;;;;-0.12;73.73;101837.25;5117502;28;20442;-70
2022/03/08 07:07:38;;;;;;;11.63;10.40;;;;;;;0.06;72.92;101830.72;5116888;28;21008;-70
2022/03/08 07:10:06;;;;;;;13.50;10.33;;;;;;;0.22;72.78;101828.47;5116985;28;20425;-70
2022/03/08 07:12:32;;;;;;;19.60;10.10;;;;;;;0.36;71.32;101822.69;5116853;28;20845;-70
2022/03/08 07:14:58;;;;;;;15.27;11.27;;;;;;;0.64;70.45;101826.63;5116790;28;20429;-70
2022/03/08 07:17:25;;;;;;;17.43;10.40;;;;;;;0.67;70.48;101832.72;5117111;28;20426;-70
2022/03/08 07:19:51;;;;;;;12.57;10.97;;;;;;;0.70;70.26;101835.34;5117118;28;20447;-70
2022/03/08 07:22:18;;;;;;;11.17;10.13;;;;;;;0.80;69.08;101841.53;5116876;28;20498;-69
2022/03/08 07:24:44;;;;;;;19.17;11.23;;;;;;;0.90;68.97;101833.09;5116940;28;20795;-69
2022/03/08 07:27:11;;;;;;;12.00;10.67;;;;;;;1.03;68.86;101842.75;5116705;28;20793;-70
2022/03/08 07:29:39;;;;;;;20.83;10.57;;;;;;;1.15;68.73;101844.69;5116903;28;20757;-70
2022/03/08 07:32:05;;;;;;;12.67;10.63;;;;;;;1.21;67.51;101834.44;5116425;28;20453;-70
2022/03/08 07:34:32;;;;;;;10.20;9.27;;;;;;;1.34;67.06;101830.31;5117196;28;20478;-70
2022/03/08 07:36:58;;;;;;;15.27;10.73;;;;;;;1.44;66.45;101828.75;5116387;28;20825;-70
2022/03/08 07:39:25;;;;;;;32.47;11.23;;;;;;;1.53;66.94;101824.59;5116386;28;20857;-69
2022/03/08 07:41:51;;;;;;;10.97;9.97;;;;;;;1.57;67.65;101825.47;5116371;28;20258;-70
2022/03/08 07:44:20;;;;;;;12.70;10.93;;;;;;;1.71;66.97;101823.06;5098011;28;20461;-70
2022/03/08 07:46:50;;;;;;;12.60;10.93;;;;;;;1.83;66.19;101824.09;5116357;28;20201;-70
2022/03/08 07:49:17;;;;;;;18.20;10.70;;;;;;;1.84;65.64;101824.97;5116709;28;20440;-70
2022/03/08 07:51:49;;;;;;;16.30;10.40;;;;;;;1.98;64.94;101826.00;5115955;28;20205;-69
2022/03/08 07:54:16;;;;;;;14.20;10.60;;;;;;;2.12;64.77;101821.00;5116066;28;20196;-69
2022/03/08 07:56:43;;;;;;;23.57;10.67;;;;;;;2.28;63.87;101827.19;5116291;28;20189;-69
2022/03/08 07:59:11;;;;;;;22.57;10.57;;;;;;;2.34;64.11;101822.97;5115923;28;20212;-69
2022/03/08 08:01:37;;;;;;;20.73;10.13;;;;;;;2.48;62.58;101826.53;5115944;28;20693;-72
2022/03/08 08:04:04;;;;;;;11.33;10.23;;;;;;;2.70;62.86;101821.56;5115899;28;20183;-69
2022/03/08 08:06:30;;;;;;;12.60;10.43;;;;;;;2.76;61.85;101824.22;5115731;28;20247;-69
2022/03/08 08:08:57;;;;;;;16.03;10.23;;;;;;;2.81;60.62;101832.88;5116444;28;20680;-70
2022/03/08 08:11:23;;;;;;;11.50;10.40;;;;;;;2.88;60.27;101831.22;5116005;28;20605;-69
2022/03/08 08:13:50;;;;;;;13.97;10.77;;;;;;;2.95;60.97;101831.28;5116312;28;20193;-69
2022/03/08 08:16:18;;;;;;;10.13;9.23;;;;;;;3.10;60.53;101835.72;5115713;28;20239;-69
2022/03/08 08:18:45;;;;;;;11.17;10.07;;;;;;;3.26;59.25;101834.94;5115945;28;20643;-69
2022/03/08 08:21:12;;;;;;;13.70;10.80;;;;;;;3.27;59.62;101838.41;5115363;28;20268;-69
2022/03/08 08:23:38;;;;;;;19.13;9.73;;;;;;;3.33;59.25;101833.28;5115555;28;20186;-69
2022/03/08 08:26:05;;;;;;;20.37;11.27;;;;;;;3.42;57.96;101829.88;5115871;28;20620;-69
2022/03/08 08:28:31;;;;;;;11.83;10.63;;;;;;;3.51;58.17;101835.13;5115643;28;20201;-69
2022/03/08 08:30:58;;;;;;;12.10;10.93;;;;;;;3.58;57.77;101824.81;5115443;28;20206;-69
2022/03/08 08:33:26;;;;;;;26.13;11.30;;;;;;;3.83;58.68;101827.50;5115674;28;20181;-70
2022/03/08 08:35:52;;;;;;;15.77;11.03;;;;;;;3.93;57.27;101826.69;5115402;28;20188;-70
2022/03/08 08:38:19;;;;;;;11.87;10.33;;;;;;;4.21;56.63;101825.03;5115502;28;20515;-70
2022/03/08 08:40:45;;;;;;;16.23;11.00;;;;;;;4.19;56.52;101818.13;5115077;28;20195;-70
2022/03/08 08:43:12;;;;;;;15.13;11.40;;;;;;;4.37;56.26;101825.97;5115501;28;20181;-70
2022/03/08 08:45:38;;;;;;;13.73;10.83;;;;;;;4.45;54.90;101816.47;5115616;28;20704;-69
2022/03/08 08:48:07;;;;;;;10.80;9.10;;;;;;;4.52;53.53;101822.53;5115233;28;20250;-69
2022/03/08 08:50:35;;;;;;;13.03;10.43;;;;;;;4.62;53.37;101806.97;5115013;28;20193;-69
2022/03/08 08:53:02;;;;;;;11.60;10.13;;;;;;;4.94;53.01;101809.56;5115184;28;20181;-69
2022/03/08 08:55:28;;;;;;;11.77;10.47;;;;;;;5.24;52.00;101802.63;5115439;28;20177;-70
2022/03/08 08:57:55;;;;;;;11.93;10.63;;;;;;;5.08;51.61;101806.97;5114818;28;20238;-70
2022/03/08 09:00:21;;;;;;;10.50;9.63;;;;;;;5.27;51.50;101804.31;5114824;28;20581;-70
2022/03/08 09:02:48;;;;;;;13.03;10.47;;;;;;;5.55;52.07;101806.00;5114969;28;20568;-70
2022/03/08 09:05:15;;;;;;;22.00;10.73;;;;;;;5.73;50.69;101799.88;5114714;28;20185;-70
2022/03/08 09:07:41;;;;;;;10.10;9.40;;;;;;;5.85;50.13;101799.81;5114818;28;20201;-70
2022/03/08 09:10:08;;;;;;;11.60;10.50;;;;;;;5.70;49.91;101803.34;5114827;28;20182;-70
2022/03/08 09:12:35;;;;;;;11.37;10.47;;;;;;;5.93;50.33;101797.19;5114457;28;20201;-70
2022/03/08 09:15:02;;;;;;;18.77;10.67;;;;;;;5.94;49.93;101791.16;5114474;28;20242;-70
2022/03/08 09:17:29;;;;;;;11.77;10.70;;;;;;;6.08;49.56;101794.56;5114081;28;20268;-70
2022/03/08 09:19:56;;;;;;;14.80;10.03;;;;;;;6.33;49.96;101793.53;5115000;28;20208;-70
2022/03/08 09:22:22;;;;;;;11.63;10.40;;;;;;;6.23;48.71;101789.25;5114610;28;20204;-70
2022/03/08 09:24:49;;;;;;;22.13;11.07;;;;;;;6.64;49.71;101777.69;5114586;28;20649;-70
2022/03/08 09:27:16;;;;;;;11.73;9.50;;;;;;;6.86;46.38;101775.78;5114794;28;20208;-70
2022/03/08 09:29:45;;;;;;;12.23;11.23;;;;;;;7.14;47.68;101765.94;5114212;28;20198;-70
2022/03/08 09:32:12;;;;;;;10.50;9.60;;;;;;;7.08;46.81;101759.09;5114445;28;20215;-70
2022/03/08 09:34:39;;;;;;;10.73;9.93;;;;;;;7.06;46.87;101755.59;5114740;28;20588;-70
2022/03/08 09:37:07;;;;;;;10.63;9.83;;;;;;;7.12;46.44;101754.69;5114379;28;20282;-71
2022/03/08 09:39:34;;;;;;;10.30;9.33;;;;;;;7.26;45.52;101751.94;5114608;28;20179;-70
2022/03/08 09:42:02;;;;;;;13.87;9.37;;;;;;;7.57;46.06;101755.03;5113971;28;20209;-71
2022/03/08 09:44:29;;;;;;;20.70;9.30;;;;;;;7.65;42.86;101740.19;5114026;28;20658;-70
2022/03/08 09:46:56;;;;;;;9.77;9.03;;;;;;;7.86;43.53;101747.75;5114440;28;20198;-70
2022/03/08 09:49:22;;;;;;;9.10;8.53;;;;;;;7.99;44.17;101751.00;5113988;28;20280;-71
2022/03/08 09:51:53;;;;;;;9.17;8.30;;;;;;;8.33;42.81;101747.91;5114135;28;20205;-70
2022/03/08 09:54:20;;;;;;;9.03;8.43;;;;;;;8.55;40.98;101739.75;5114508;28;20215;-70
2022/03/08 09:56:47;;;;;;;11.00;8.73;;;;;;;8.62;40.38;101745.75;5113807;28;20585;-70
2022/03/08 09:59:18;;;;;;;9.37;8.13;;;;;;;8.44;39.83;101735.63;5113867;28;20189;-70
2022/03/08 10:01:47;;;;;;;8.40;8.00;;;;;;;8.51;39.49;101732.88;5113827;28;20219;-70
2022/03/08 10:04:18;;;;;;;8.43;8.03;;;;;;;8.69;39.75;101728.22;5113773;28;20192;-70
2022/03/08 10:07:09;;;;;;;8.67;7.83;;;;;;;8.98;39.22;101722.47;5113682;28;20685;-71
2022/03/08 10:09:36;;;;;;;8.10;7.90;;;;;;;8.82;37.52;101722.75;5113981;28;20170;-71
2022/03/08 10:12:14;;;;;;;9.40;8.43;;;;;;;8.85;38.91;101727.06;5112998;28;20216;-70
2022/03/08 10:14:41;;;;;;;7.87;7.53;;;;;;;8.81;37.86;101733.25;5113917;28;20214;-70
2022/03/08 10:17:29;;;;;;;8.27;7.83;;;;;;;8.80;38.11;101721.06;5104585;28;20313;-69
2022/03/08 10:19:56;;;;;;;8.67;8.03;;;;;;;8.90;38.54;101720.00;5093075;28;20667;-71
2022/03/08 10:22:28;;;;;;;8.53;7.73;;;;;;;8.97;38.07;101713.78;5093481;28;20687;-71
2022/03/08 10:25:15;;;;;;;8.30;7.77;;;;;;;8.94;38.21;101707.78;5099741;28;20656;-70
2022/03/08 10:27:43;;;;;;;8.63;8.17;;;;;;;9.19;37.09;101708.16;5114161;28;20200;-70
2022/03/08 10:30:12;;;;;;;7.97;7.73;;;;;;;9.26;36.95;101692.31;5100759;28;20190;-70
2022/03/08 10:32:59;;;;;;;8.53;7.07;;;;;;;9.20;36.05;101702.03;5097492;28;20223;-70
2022/03/08 10:35:27;;;;;;;9.17;8.63;;;;;;;9.04;37.71;101696.25;5097331;28;20182;-70
2022/03/08 10:38:02;;;;;;;9.67;7.53;;;;;;;9.00;37.12;101695.47;5097211;28;20182;-70
2022/03/08 10:40:35;;;;;;;8.57;8.17;;;;;;;8.82;37.28;101682.72;5097390;28;20622;-70
2022/03/08 10:43:05;;;;;;;8.10;7.70;;;;;;;9.04;36.68;101676.22;5097714;28;20176;-71
2022/03/08 10:45:35;;;;;;;7.83;7.40;;;;;;;9.19;36.14;101674.19;5097324;28;20197;-70
2022/03/08 10:48:06;;;;;;;9.03;8.17;;;;;;;9.43;37.46;101672.81;5096889;28;20274;-71
2022/03/08 10:50:37;;;;;;;8.03;7.43;;;;;;;9.49;36.30;101667.44;5097544;28;20176;-71
2022/03/08 10:53:06;;;;;;;8.73;7.53;;;;;;;9.70;35.70;101663.50;5097536;28;20178;-71
2022/03/08 10:55:35;;;;;;;7.73;7.43;;;;;;;9.49;36.50;101664.84;5097161;28;20266;-70
2022/03/08 10:58:03;;;;;;;8.10;7.37;;;;;;;9.60;37.05;101665.47;5096808;28;20241;-71
2022/03/08 11:00:31;;;;;;;8.77;8.20;;;;;;;9.89;37.51;101655.22;5096768;28;20192;-71
2022/03/08 11:03:00;;;;;;;8.07;7.73;;;;;;;10.07;35.14;101666.13;5096665;28;20216;-70
2022/03/08 11:05:30;;;;;;;7.97;7.23;;;;;;;10.13;35.93;101661.59;5096829;28;20189;-71
2022/03/08 11:07:57;;;;;;;9.80;7.80;;;;;;;10.37;34.35;101656.72;5097087;28;20204;-71
2022/03/08 11:10:26;;;;;;;7.67;7.37;;;;;;;10.32;35.39;101655.97;5096631;28;20364;-71
2022/03/08 11:12:54;;;;;;;10.87;8.73;;;;;;;10.47;35.49;101650.34;5096738;28;20213;-70
2022/03/08 11:15:22;;;;;;;8.20;7.67;;;;;;;10.68;35.05;101641.91;5096833;28;20209;-71
2022/03/08 11:17:51;;;;;;;7.40;7.10;;;;;;;10.81;35.10;101644.22;5096386;28;20180;-71
2022/03/08 11:20:20;;;;;;;8.20;7.70;;;;;;;10.71;34.84;101641.81;5096038;28;20201;-71
2022/03/08 11:22:48;;;;;;;11.60;8.33;;;;;;;10.70;34.77;101637.47;5095077;28;20217;-71